sensor_id;sensor_type;location;lat;lon;timestamp;P1;durP1;ratioP1;P2;durP2;ratioP2
74867;SDS011;63419;42.262;12.210;2023-02-01T00:01:06;7.28;;;2.17;;
74867;SDS011;63419;42.262;12.210;2023-02-01T00:03:35;6.40;;;2.33;;
74867;SDS011;63419;42.262;12.210;2023-02-01T00:06:03;7.57;;;2.60;;
74867;SDS011;63419;42.262;12.210;2023-02-01T00:08:30;7.22;;;2.05;;
74867;SDS011;63419;42.262;12.210;2023-02-01T00:11:05;5.43;;;0.90;;
74867;SDS011;63419;42.262;12.210;2023-02-01T00:13:38;6.80;;;2.22;;
74867;SDS011;63419;42.262;12.210;2023-02-01T00:16:09;4.53;;;1.65;;
74867;SDS011;63419;42.262;12.210;2023-02-01T00:18:40;6.95;;;2.35;;
74867;SDS011;63419;42.262;12.210;2023-02-01T00:21:12;7.70;;;2.65;;
74867;SDS011;63419;42.262;12.210;2023-02-01T00:23:43;6.93;;;2.63;;
74867;SDS011;63419;42.262;12.210;2023-02-01T00:26:13;7.97;;;2.38;;
74867;SDS011;63419;42.262;12.210;2023-02-01T00:28:57;7.30;;;2.40;;
74867;SDS011;63419;42.262;12.210;2023-02-01T00:31:26;5.02;;;1.53;;
74867;SDS011;63419;42.262;12.210;2023-02-01T00:33:54;5.05;;;1.70;;
74867;SDS011;63419;42.262;12.210;2023-02-01T00:36:22;6.95;;;1.50;;
74867;SDS011;63419;42.262;12.210;2023-02-01T00:38:49;5.85;;;1.95;;
74867;SDS011;63419;42.262;12.210;2023-02-01T00:41:17;6.40;;;1.45;;
74867;SDS011;63419;42.262;12.210;2023-02-01T00:43:47;4.75;;;1.40;;
74867;SDS011;63419;42.262;12.210;2023-02-01T00:46:16;8.15;;;2.10;;
74867;SDS011;63419;42.262;12.210;2023-02-01T00:48:45;5.65;;;2.10;;
74867;SDS011;63419;42.262;12.210;2023-02-01T00:51:23;6.72;;;2.53;;
74867;SDS011;63419;42.262;12.210;2023-02-01T00:53:53;5.38;;;2.08;;
74867;SDS011;63419;42.262;12.210;2023-02-01T00:56:21;6.20;;;2.10;;
74867;SDS011;63419;42.262;12.210;2023-02-01T00:58:49;7.57;;;2.15;;
74867;SDS011;63419;42.262;12.210;2023-02-01T01:01:21;6.10;;;1.73;;
74867;SDS011;63419;42.262;12.210;2023-02-01T01:03:53;11.95;;;2.85;;
74867;SDS011;63419;42.262;12.210;2023-02-01T01:08:56;17.45;;;4.40;;
74867;SDS011;63419;42.262;12.210;2023-02-01T01:11:30;14.68;;;5.60;;
74867;SDS011;63419;42.262;12.210;2023-02-01T01:14:01;14.13;;;4.43;;
74867;SDS011;63419;42.262;12.210;2023-02-01T01:16:30;12.68;;;3.63;;
74867;SDS011;63419;42.262;12.210;2023-02-01T01:18:58;11.48;;;3.38;;
74867;SDS011;63419;42.262;12.210;2023-02-01T01:21:26;11.63;;;2.58;;
74867;SDS011;63419;42.262;12.210;2023-02-01T01:23:54;9.48;;;2.58;;
74867;SDS011;63419;42.262;12.210;2023-02-01T01:26:25;6.85;;;2.42;;
74867;SDS011;63419;42.262;12.210;2023-02-01T01:28:55;15.52;;;4.50;;
74867;SDS011;63419;42.262;12.210;2023-02-01T01:31:24;12.82;;;4.55;;
74867;SDS011;63419;42.262;12.210;2023-02-01T01:33:53;9.82;;;2.72;;
74867;SDS011;63419;42.262;12.210;2023-02-01T01:36:24;7.38;;;2.25;;
74867;SDS011;63419;42.262;12.210;2023-02-01T01:38:53;9.20;;;2.38;;
74867;SDS011;63419;42.262;12.210;2023-02-01T01:41:21;10.95;;;3.70;;
74867;SDS011;63419;42.262;12.210;2023-02-01T01:43:54;10.40;;;2.90;;
74867;SDS011;63419;42.262;12.210;2023-02-01T01:46:31;9.45;;;3.42;;
74867;SDS011;63419;42.262;12.210;2023-02-01T01:51:41;10.73;;;2.95;;
74867;SDS011;63419;42.262;12.210;2023-02-01T01:54:32;10.40;;;3.17;;
74867;SDS011;63419;42.262;12.210;2023-02-01T01:57:11;6.47;;;2.35;;
74867;SDS011;63419;42.262;12.210;2023-02-01T02:00:07;5.32;;;1.95;;
74867;SDS011;63419;42.262;12.210;2023-02-01T02:02:43;7.40;;;1.85;;
74867;SDS011;63419;42.262;12.210;2023-02-01T02:05:14;8.85;;;2.33;;
74867;SDS011;63419;42.262;12.210;2023-02-01T02:07:48;4.50;;;1.40;;
74867;SDS011;63419;42.262;12.210;2023-02-01T02:10:19;6.60;;;1.85;;
74867;SDS011;63419;42.262;12.210;2023-02-01T02:12:47;9.98;;;1.58;;
74867;SDS011;63419;42.262;12.210;2023-02-01T02:15:15;5.82;;;1.15;;
74867;SDS011;63419;42.262;12.210;2023-02-01T02:34:40;6.47;;;1.50;;
74867;SDS011;63419;42.262;12.210;2023-02-01T02:40:20;8.63;;;2.30;;
74867;SDS011;63419;42.262;12.210;2023-02-01T02:46:21;7.07;;;1.63;;
74867;SDS011;63419;42.262;12.210;2023-02-01T02:49:23;6.60;;;1.65;;
74867;SDS011;63419;42.262;12.210;2023-02-01T02:52:33;6.47;;;2.30;;
74867;SDS011;63419;42.262;12.210;2023-02-01T02:55:27;13.30;;;3.17;;
74867;SDS011;63419;42.262;12.210;2023-02-01T02:57:57;15.27;;;3.53;;
74867;SDS011;63419;42.262;12.210;2023-02-01T03:00:44;24.10;;;5.65;;
74867;SDS011;63419;42.262;12.210;2023-02-01T03:03:35;22.90;;;6.57;;
74867;SDS011;63419;42.262;12.210;2023-02-01T03:06:23;29.33;;;8.20;;
74867;SDS011;63419;42.262;12.210;2023-02-01T03:08:51;42.22;;;12.60;;
74867;SDS011;63419;42.262;12.210;2023-02-01T03:11:24;39.97;;;10.63;;
74867;SDS011;63419;42.262;12.210;2023-02-01T03:14:15;29.48;;;9.65;;
74867;SDS011;63419;42.262;12.210;2023-02-01T03:16:48;53.35;;;13.70;;
74867;SDS011;63419;42.262;12.210;2023-02-01T03:19:36;57.58;;;16.27;;
74867;SDS011;63419;42.262;12.210;2023-02-01T03:22:15;72.63;;;20.50;;
74867;SDS011;63419;42.262;12.210;2023-02-01T03:24:53;71.03;;;22.52;;
74867;SDS011;63419;42.262;12.210;2023-02-01T03:27:35;81.35;;;20.25;;
74867;SDS011;63419;42.262;12.210;2023-02-01T03:30:16;61.17;;;18.42;;
74867;SDS011;63419;42.262;12.210;2023-02-01T03:32:54;56.42;;;19.40;;
74867;SDS011;63419;42.262;12.210;2023-02-01T03:41:28;57.53;;;16.08;;
74867;SDS011;63419;42.262;12.210;2023-02-01T03:49:55;35.45;;;12.13;;
74867;SDS011;63419;42.262;12.210;2023-02-01T03:52:33;40.95;;;12.30;;
74867;SDS011;63419;42.262;12.210;2023-02-01T03:55:16;47.38;;;12.45;;
74867;SDS011;63419;42.262;12.210;2023-02-01T03:57:57;24.88;;;6.43;;
74867;SDS011;63419;42.262;12.210;2023-02-01T04:00:32;17.55;;;5.85;;
74867;SDS011;63419;42.262;12.210;2023-02-01T04:02:59;21.75;;;7.30;;
74867;SDS011;63419;42.262;12.210;2023-02-01T04:05:30;16.50;;;6.05;;
74867;SDS011;63419;42.262;12.210;2023-02-01T04:07:57;23.45;;;7.13;;
74867;SDS011;63419;42.262;12.210;2023-02-01T04:10:25;29.75;;;7.47;;
74867;SDS011;63419;42.262;12.210;2023-02-01T04:12:53;27.05;;;10.05;;
74867;SDS011;63419;42.262;12.210;2023-02-01T04:15:20;43.67;;;13.52;;
74867;SDS011;63419;42.262;12.210;2023-02-01T04:17:47;42.80;;;11.88;;
74867;SDS011;63419;42.262;12.210;2023-02-01T04:20:15;40.88;;;12.05;;
74867;SDS011;63419;42.262;12.210;2023-02-01T04:22:43;35.05;;;10.80;;
74867;SDS011;63419;42.262;12.210;2023-02-01T04:25:10;28.40;;;8.30;;
74867;SDS011;63419;42.262;12.210;2023-02-01T04:27:38;19.58;;;5.78;;
74867;SDS011;63419;42.262;12.210;2023-02-01T04:30:25;14.25;;;4.55;;
74867;SDS011;63419;42.262;12.210;2023-02-01T04:32:52;30.08;;;9.57;;
74867;SDS011;63419;42.262;12.210;2023-02-01T04:35:20;34.25;;;10.32;;
74867;SDS011;63419;42.262;12.210;2023-02-01T04:37:48;11.75;;;3.97;;
74867;SDS011;63419;42.262;12.210;2023-02-01T04:40:15;24.73;;;7.45;;
74867;SDS011;63419;42.262;12.210;2023-02-01T04:42:42;33.20;;;8.90;;
74867;SDS011;63419;42.262;12.210;2023-02-01T04:45:10;33.63;;;9.57;;
74867;SDS011;63419;42.262;12.210;2023-02-01T04:47:37;31.00;;;9.35;;
74867;SDS011;63419;42.262;12.210;2023-02-01T04:50:04;36.10;;;8.48;;
74867;SDS011;63419;42.262;12.210;2023-02-01T04:52:33;26.95;;;7.80;;
74867;SDS011;63419;42.262;12.210;2023-02-01T04:55:01;24.08;;;6.97;;
74867;SDS011;63419;42.262;12.210;2023-02-01T04:57:29;22.85;;;7.13;;
74867;SDS011;63419;42.262;12.210;2023-02-01T04:59:56;26.98;;;6.95;;
74867;SDS011;63419;42.262;12.210;2023-02-01T05:02:23;17.30;;;5.45;;
74867;SDS011;63419;42.262;12.210;2023-02-01T05:04:51;30.10;;;6.57;;
74867;SDS011;63419;42.262;12.210;2023-02-01T05:07:18;18.23;;;5.43;;
74867;SDS011;63419;42.262;12.210;2023-02-01T05:09:45;16.42;;;5.45;;
74867;SDS011;63419;42.262;12.210;2023-02-01T05:12:12;13.93;;;5.70;;
74867;SDS011;63419;42.262;12.210;2023-02-01T05:14:58;19.33;;;5.50;;
74867;SDS011;63419;42.262;12.210;2023-02-01T05:17:25;22.95;;;7.53;;
74867;SDS011;63419;42.262;12.210;2023-02-01T05:19:53;34.72;;;9.25;;
74867;SDS011;63419;42.262;12.210;2023-02-01T05:22:20;32.85;;;10.25;;
74867;SDS011;63419;42.262;12.210;2023-02-01T05:24:47;29.08;;;9.50;;
74867;SDS011;63419;42.262;12.210;2023-02-01T05:27:14;35.70;;;10.25;;
74867;SDS011;63419;42.262;12.210;2023-02-01T05:29:42;32.83;;;9.43;;
74867;SDS011;63419;42.262;12.210;2023-02-01T05:32:09;31.73;;;11.07;;
74867;SDS011;63419;42.262;12.210;2023-02-01T05:34:48;31.58;;;11.43;;
74867;SDS011;63419;42.262;12.210;2023-02-01T05:37:15;41.92;;;10.90;;
74867;SDS011;63419;42.262;12.210;2023-02-01T05:39:42;35.55;;;11.25;;
74867;SDS011;63419;42.262;12.210;2023-02-01T05:42:09;39.78;;;12.35;;
74867;SDS011;63419;42.262;12.210;2023-02-01T05:44:37;38.72;;;13.02;;
74867;SDS011;63419;42.262;12.210;2023-02-01T05:47:04;33.15;;;11.30;;
74867;SDS011;63419;42.262;12.210;2023-02-01T05:49:31;35.50;;;11.75;;
74867;SDS011;63419;42.262;12.210;2023-02-01T05:51:59;32.33;;;9.52;;
74867;SDS011;63419;42.262;12.210;2023-02-01T05:54:26;27.63;;;10.15;;
74867;SDS011;63419;42.262;12.210;2023-02-01T05:56:53;37.40;;;10.90;;
74867;SDS011;63419;42.262;12.210;2023-02-01T05:59:21;33.38;;;10.32;;
74867;SDS011;63419;42.262;12.210;2023-02-01T06:01:48;34.80;;;11.57;;
74867;SDS011;63419;42.262;12.210;2023-02-01T06:04:16;38.05;;;12.63;;
74867;SDS011;63419;42.262;12.210;2023-02-01T06:06:43;43.55;;;14.13;;
74867;SDS011;63419;42.262;12.210;2023-02-01T06:09:10;47.72;;;15.15;;
74867;SDS011;63419;42.262;12.210;2023-02-01T06:11:38;53.33;;;16.45;;
74867;SDS011;63419;42.262;12.210;2023-02-01T06:14:06;49.60;;;16.73;;
74867;SDS011;63419;42.262;12.210;2023-02-01T06:16:34;53.38;;;16.38;;
74867;SDS011;63419;42.262;12.210;2023-02-01T06:19:01;66.72;;;19.70;;
74867;SDS011;63419;42.262;12.210;2023-02-01T06:21:28;53.70;;;15.90;;
74867;SDS011;63419;42.262;12.210;2023-02-01T06:23:56;50.92;;;15.82;;
74867;SDS011;63419;42.262;12.210;2023-02-01T06:28:51;23.27;;;8.07;;
74867;SDS011;63419;42.262;12.210;2023-02-01T06:31:19;17.13;;;5.63;;
74867;SDS011;63419;42.262;12.210;2023-02-01T06:33:46;12.82;;;4.93;;
74867;SDS011;63419;42.262;12.210;2023-02-01T06:36:15;16.52;;;5.10;;
74867;SDS011;63419;42.262;12.210;2023-02-01T06:38:42;13.02;;;3.83;;
74867;SDS011;63419;42.262;12.210;2023-02-01T06:41:09;13.93;;;3.55;;
74867;SDS011;63419;42.262;12.210;2023-02-01T06:46:06;9.73;;;3.80;;
74867;SDS011;63419;42.262;12.210;2023-02-01T06:48:38;9.23;;;2.75;;
74867;SDS011;63419;42.262;12.210;2023-02-01T06:51:06;11.63;;;4.40;;
74867;SDS011;63419;42.262;12.210;2023-02-01T06:53:47;10.02;;;4.15;;
74867;SDS011;63419;42.262;12.210;2023-02-01T06:56:14;8.48;;;3.65;;
74867;SDS011;63419;42.262;12.210;2023-02-01T06:58:41;12.68;;;4.65;;
74867;SDS011;63419;42.262;12.210;2023-02-01T07:01:09;16.15;;;5.40;;
74867;SDS011;63419;42.262;12.210;2023-02-01T07:03:37;11.68;;;5.75;;
74867;SDS011;63419;42.262;12.210;2023-02-01T07:06:06;14.13;;;5.82;;
74867;SDS011;63419;42.262;12.210;2023-02-01T07:08:36;19.30;;;7.53;;
74867;SDS011;63419;42.262;12.210;2023-02-01T07:11:09;35.38;;;11.98;;
74867;SDS011;63419;42.262;12.210;2023-02-01T07:13:39;35.20;;;11.93;;
74867;SDS011;63419;42.262;12.210;2023-02-01T07:16:09;28.92;;;10.27;;
74867;SDS011;63419;42.262;12.210;2023-02-01T07:18:39;30.02;;;9.25;;
74867;SDS011;63419;42.262;12.210;2023-02-01T07:26:03;25.25;;;9.25;;
74867;SDS011;63419;42.262;12.210;2023-02-01T07:28:33;32.50;;;10.25;;
74867;SDS011;63419;42.262;12.210;2023-02-01T07:31:02;31.92;;;10.18;;
74867;SDS011;63419;42.262;12.210;2023-02-01T07:33:37;24.33;;;8.70;;
74867;SDS011;63419;42.262;12.210;2023-02-01T07:36:05;18.17;;;7.22;;
74867;SDS011;63419;42.262;12.210;2023-02-01T07:38:36;22.48;;;6.45;;
74867;SDS011;63419;42.262;12.210;2023-02-01T07:41:04;20.98;;;7.35;;
74867;SDS011;63419;42.262;12.210;2023-02-01T07:43:32;18.60;;;6.30;;
74867;SDS011;63419;42.262;12.210;2023-02-01T07:46:01;24.05;;;7.60;;
74867;SDS011;63419;42.262;12.210;2023-02-01T07:48:31;24.42;;;7.07;;
74867;SDS011;63419;42.262;12.210;2023-02-01T07:51:01;22.63;;;7.93;;
74867;SDS011;63419;42.262;12.210;2023-02-01T07:53:34;28.60;;;9.70;;
74867;SDS011;63419;42.262;12.210;2023-02-01T07:56:02;23.75;;;8.63;;
74867;SDS011;63419;42.262;12.210;2023-02-01T07:58:38;21.70;;;7.95;;
74867;SDS011;63419;42.262;12.210;2023-02-01T08:01:11;22.77;;;8.35;;
74867;SDS011;63419;42.262;12.210;2023-02-01T08:03:48;24.80;;;8.48;;
74867;SDS011;63419;42.262;12.210;2023-02-01T08:06:26;12.07;;;4.57;;
74867;SDS011;63419;42.262;12.210;2023-02-01T08:08:57;22.70;;;7.38;;
74867;SDS011;63419;42.262;12.210;2023-02-01T08:11:25;21.73;;;7.13;;
74867;SDS011;63419;42.262;12.210;2023-02-01T08:13:53;25.40;;;6.78;;
74867;SDS011;63419;42.262;12.210;2023-02-01T08:16:21;17.98;;;7.32;;
74867;SDS011;63419;42.262;12.210;2023-02-01T08:18:49;16.17;;;6.57;;
74867;SDS011;63419;42.262;12.210;2023-02-01T08:21:19;16.10;;;6.72;;
74867;SDS011;63419;42.262;12.210;2023-02-01T08:23:50;22.50;;;7.50;;
74867;SDS011;63419;42.262;12.210;2023-02-01T08:26:22;21.52;;;7.75;;
74867;SDS011;63419;42.262;12.210;2023-02-01T08:28:55;19.55;;;7.60;;
74867;SDS011;63419;42.262;12.210;2023-02-01T08:31:26;24.02;;;7.38;;
74867;SDS011;63419;42.262;12.210;2023-02-01T08:33:57;24.17;;;8.43;;
74867;SDS011;63419;42.262;12.210;2023-02-01T08:36:28;23.70;;;9.07;;
74867;SDS011;63419;42.262;12.210;2023-02-01T08:38:58;23.98;;;9.55;;
74867;SDS011;63419;42.262;12.210;2023-02-01T08:41:27;32.53;;;9.05;;
74867;SDS011;63419;42.262;12.210;2023-02-01T08:43:56;24.90;;;9.75;;
74867;SDS011;63419;42.262;12.210;2023-02-01T08:46:24;31.63;;;11.40;;
74867;SDS011;63419;42.262;12.210;2023-02-01T08:48:52;29.55;;;11.20;;
74867;SDS011;63419;42.262;12.210;2023-02-01T08:51:20;28.75;;;11.13;;
74867;SDS011;63419;42.262;12.210;2023-02-01T08:53:49;22.10;;;8.85;;
74867;SDS011;63419;42.262;12.210;2023-02-01T08:56:17;21.13;;;8.98;;
74867;SDS011;63419;42.262;12.210;2023-02-01T08:58:45;25.55;;;9.38;;
74867;SDS011;63419;42.262;12.210;2023-02-01T09:01:14;23.55;;;8.60;;
74867;SDS011;63419;42.262;12.210;2023-02-01T09:03:43;24.40;;;9.40;;
74867;SDS011;63419;42.262;12.210;2023-02-01T09:06:12;20.83;;;9.45;;
74867;SDS011;63419;42.262;12.210;2023-02-01T09:08:41;19.25;;;8.20;;
74867;SDS011;63419;42.262;12.210;2023-02-01T09:14:58;14.18;;;6.07;;
74867;SDS011;63419;42.262;12.210;2023-02-01T09:19:54;16.33;;;7.10;;
74867;SDS011;63419;42.262;12.210;2023-02-01T09:22:22;14.55;;;6.35;;
74867;SDS011;63419;42.262;12.210;2023-02-01T09:24:49;16.60;;;6.68;;
74867;SDS011;63419;42.262;12.210;2023-02-01T09:27:20;17.35;;;6.55;;
74867;SDS011;63419;42.262;12.210;2023-02-01T09:29:48;22.70;;;7.93;;
74867;SDS011;63419;42.262;12.210;2023-02-01T09:32:22;21.80;;;7.90;;
74867;SDS011;63419;42.262;12.210;2023-02-01T09:34:51;16.60;;;6.05;;
74867;SDS011;63419;42.262;12.210;2023-02-01T09:37:19;12.30;;;5.05;;
74867;SDS011;63419;42.262;12.210;2023-02-01T09:39:46;11.77;;;4.50;;
74867;SDS011;63419;42.262;12.210;2023-02-01T09:42:33;13.25;;;3.30;;
74867;SDS011;63419;42.262;12.210;2023-02-01T09:45:32;12.88;;;4.68;;
74867;SDS011;63419;42.262;12.210;2023-02-01T09:48:36;15.40;;;5.07;;
74867;SDS011;63419;42.262;12.210;2023-02-01T09:51:15;13.27;;;4.75;;
74867;SDS011;63419;42.262;12.210;2023-02-01T09:54:15;12.07;;;4.60;;
74867;SDS011;63419;42.262;12.210;2023-02-01T09:56:51;10.23;;;4.07;;
74867;SDS011;63419;42.262;12.210;2023-02-01T10:02:17;11.32;;;4.03;;
74867;SDS011;63419;42.262;12.210;2023-02-01T10:04:53;8.93;;;3.25;;
74867;SDS011;63419;42.262;12.210;2023-02-01T10:10:45;16.75;;;6.03;;
74867;SDS011;63419;42.262;12.210;2023-02-01T10:13:23;12.35;;;5.10;;
74867;SDS011;63419;42.262;12.210;2023-02-01T10:16:40;11.75;;;4.75;;
74867;SDS011;63419;42.262;12.210;2023-02-01T10:23:03;9.88;;;4.28;;
74867;SDS011;63419;42.262;12.210;2023-02-01T10:25:47;14.68;;;5.80;;
74867;SDS011;63419;42.262;12.210;2023-02-01T10:28:30;14.27;;;5.22;;
74867;SDS011;63419;42.262;12.210;2023-02-01T10:31:04;14.32;;;5.55;;
74867;SDS011;63419;42.262;12.210;2023-02-01T10:33:43;8.68;;;3.90;;
74867;SDS011;63419;42.262;12.210;2023-02-01T10:36:16;8.95;;;2.58;;
74867;SDS011;63419;42.262;12.210;2023-02-01T10:38:59;12.85;;;3.85;;
74867;SDS011;63419;42.262;12.210;2023-02-01T10:41:33;11.88;;;3.03;;
74867;SDS011;63419;42.262;12.210;2023-02-01T10:44:09;10.50;;;4.35;;
74867;SDS011;63419;42.262;12.210;2023-02-01T10:47:00;6.40;;;2.10;;
74867;SDS011;63419;42.262;12.210;2023-02-01T10:52:20;13.02;;;4.90;;
74867;SDS011;63419;42.262;12.210;2023-02-01T10:58:18;11.27;;;4.30;;
74867;SDS011;63419;42.262;12.210;2023-02-01T11:01:09;10.88;;;3.72;;
74867;SDS011;63419;42.262;12.210;2023-02-01T11:03:58;9.90;;;4.03;;
74867;SDS011;63419;42.262;12.210;2023-02-01T11:06:45;10.40;;;4.78;;
74867;SDS011;63419;42.262;12.210;2023-02-01T11:09:30;14.48;;;4.32;;
74867;SDS011;63419;42.262;12.210;2023-02-01T11:12:01;9.18;;;3.45;;
74867;SDS011;63419;42.262;12.210;2023-02-01T11:14:39;13.50;;;4.00;;
74867;SDS011;63419;42.262;12.210;2023-02-01T11:20:21;10.45;;;4.25;;
74867;SDS011;63419;42.262;12.210;2023-02-01T11:23:15;12.68;;;6.38;;
74867;SDS011;63419;42.262;12.210;2023-02-01T11:25:49;14.00;;;5.43;;
74867;SDS011;63419;42.262;12.210;2023-02-01T11:28:30;9.20;;;3.60;;
74867;SDS011;63419;42.262;12.210;2023-02-01T11:31:02;10.73;;;3.95;;
74867;SDS011;63419;42.262;12.210;2023-02-01T11:33:35;12.82;;;5.70;;
74867;SDS011;63419;42.262;12.210;2023-02-01T11:36:10;5.47;;;1.35;;
74867;SDS011;63419;42.262;12.210;2023-02-01T11:38:51;5.45;;;1.48;;
74867;SDS011;63419;42.262;12.210;2023-02-01T11:44:48;6.13;;;1.80;;
74867;SDS011;63419;42.262;12.210;2023-02-01T11:47:29;7.68;;;2.90;;
74867;SDS011;63419;42.262;12.210;2023-02-01T11:50:12;6.57;;;2.35;;
74867;SDS011;63419;42.262;12.210;2023-02-01T11:52:53;5.82;;;2.03;;
74867;SDS011;63419;42.262;12.210;2023-02-01T11:55:40;6.00;;;1.80;;
74867;SDS011;63419;42.262;12.210;2023-02-01T12:01:30;5.90;;;1.42;;
74867;SDS011;63419;42.262;12.210;2023-02-01T12:42:41;7.35;;;2.45;;
74867;SDS011;63419;42.262;12.210;2023-02-01T12:45:46;8.40;;;2.75;;
74867;SDS011;63419;42.262;12.210;2023-02-01T12:48:53;7.50;;;2.75;;
74867;SDS011;63419;42.262;12.210;2023-02-01T12:51:34;8.77;;;2.35;;
74867;SDS011;63419;42.262;12.210;2023-02-01T12:54:15;8.77;;;2.55;;
74867;SDS011;63419;42.262;12.210;2023-02-01T13:02:27;8.50;;;2.15;;
74867;SDS011;63419;42.262;12.210;2023-02-01T13:07:34;7.88;;;2.95;;
74867;SDS011;63419;42.262;12.210;2023-02-01T13:10:27;8.95;;;3.72;;
74867;SDS011;63419;42.262;12.210;2023-02-01T13:13:34;8.25;;;2.60;;
74867;SDS011;63419;42.262;12.210;2023-02-01T13:21:55;6.68;;;2.60;;
74867;SDS011;63419;42.262;12.210;2023-02-01T13:24:42;8.35;;;3.20;;
74867;SDS011;63419;42.262;12.210;2023-02-01T13:27:13;6.68;;;2.50;;
74867;SDS011;63419;42.262;12.210;2023-02-01T13:29:49;8.32;;;2.90;;
74867;SDS011;63419;42.262;12.210;2023-02-01T13:39:02;9.75;;;2.65;;
74867;SDS011;63419;42.262;12.210;2023-02-01T13:42:16;9.32;;;3.17;;
74867;SDS011;63419;42.262;12.210;2023-02-01T13:44:54;8.75;;;2.90;;
74867;SDS011;63419;42.262;12.210;2023-02-01T13:47:35;6.50;;;2.33;;
74867;SDS011;63419;42.262;12.210;2023-02-01T13:55:41;7.80;;;3.20;;
74867;SDS011;63419;42.262;12.210;2023-02-01T13:58:21;7.10;;;2.67;;
74867;SDS011;63419;42.262;12.210;2023-02-01T14:03:58;7.35;;;3.05;;
74867;SDS011;63419;42.262;12.210;2023-02-01T14:11:40;6.38;;;2.78;;
74867;SDS011;63419;42.262;12.210;2023-02-01T14:16:43;8.73;;;2.88;;
74867;SDS011;63419;42.262;12.210;2023-02-01T14:19:36;8.98;;;2.28;;
74867;SDS011;63419;42.262;12.210;2023-02-01T14:24:53;8.00;;;2.70;;
74867;SDS011;63419;42.262;12.210;2023-02-01T14:27:24;8.27;;;3.33;;
74867;SDS011;63419;42.262;12.210;2023-02-01T14:29:56;6.43;;;2.33;;
74867;SDS011;63419;42.262;12.210;2023-02-01T14:32:31;7.97;;;3.13;;
74867;SDS011;63419;42.262;12.210;2023-02-01T14:35:20;8.07;;;2.80;;
74867;SDS011;63419;42.262;12.210;2023-02-01T14:37:54;10.55;;;4.05;;
74867;SDS011;63419;42.262;12.210;2023-02-01T14:40:29;6.88;;;2.88;;
74867;SDS011;63419;42.262;12.210;2023-02-01T14:42:57;8.02;;;2.28;;
74867;SDS011;63419;42.262;12.210;2023-02-01T14:47:54;9.07;;;3.40;;
74867;SDS011;63419;42.262;12.210;2023-02-01T14:55:42;7.43;;;2.30;;
74867;SDS011;63419;42.262;12.210;2023-02-01T15:01:17;7.43;;;2.50;;
74867;SDS011;63419;42.262;12.210;2023-02-01T15:09:13;8.52;;;2.85;;
74867;SDS011;63419;42.262;12.210;2023-02-01T15:14:31;8.30;;;2.13;;
74867;SDS011;63419;42.262;12.210;2023-02-01T15:17:19;8.45;;;2.90;;
74867;SDS011;63419;42.262;12.210;2023-02-01T15:19:56;7.72;;;2.00;;
74867;SDS011;63419;42.262;12.210;2023-02-01T15:22:34;7.97;;;2.90;;
74867;SDS011;63419;42.262;12.210;2023-02-01T15:25:02;8.85;;;3.25;;
74867;SDS011;63419;42.262;12.210;2023-02-01T15:27:30;10.82;;;3.47;;
74867;SDS011;63419;42.262;12.210;2023-02-01T15:30:16;9.95;;;3.40;;
74867;SDS011;63419;42.262;12.210;2023-02-01T15:32:46;8.68;;;4.00;;
74867;SDS011;63419;42.262;12.210;2023-02-01T15:38:44;8.05;;;3.45;;
74867;SDS011;63419;42.262;12.210;2023-02-01T15:46:28;10.35;;;4.00;;
74867;SDS011;63419;42.262;12.210;2023-02-01T15:49:03;9.98;;;3.63;;
74867;SDS011;63419;42.262;12.210;2023-02-01T15:51:47;8.57;;;2.88;;
74867;SDS011;63419;42.262;12.210;2023-02-01T15:54:19;9.32;;;3.55;;
74867;SDS011;63419;42.262;12.210;2023-02-01T15:57:11;10.50;;;2.88;;
74867;SDS011;63419;42.262;12.210;2023-02-01T15:59:46;10.20;;;3.78;;
74867;SDS011;63419;42.262;12.210;2023-02-01T16:02:36;10.25;;;4.30;;
74867;SDS011;63419;42.262;12.210;2023-02-01T16:08:10;9.50;;;4.07;;
74867;SDS011;63419;42.262;12.210;2023-02-01T16:10:49;6.47;;;1.98;;
74867;SDS011;63419;42.262;12.210;2023-02-01T16:13:20;12.68;;;2.97;;
74867;SDS011;63419;42.262;12.210;2023-02-01T16:15:48;5.97;;;1.90;;
74867;SDS011;63419;42.262;12.210;2023-02-01T16:18:16;8.63;;;2.70;;
74867;SDS011;63419;42.262;12.210;2023-02-01T16:20:44;6.55;;;2.00;;
74867;SDS011;63419;42.262;12.210;2023-02-01T16:23:14;7.88;;;2.83;;
74867;SDS011;63419;42.262;12.210;2023-02-01T16:25:41;8.27;;;3.55;;
74867;SDS011;63419;42.262;12.210;2023-02-01T16:28:09;8.25;;;3.35;;
74867;SDS011;63419;42.262;12.210;2023-02-01T16:30:36;10.10;;;3.85;;
74867;SDS011;63419;42.262;12.210;2023-02-01T16:33:04;6.88;;;2.10;;
74867;SDS011;63419;42.262;12.210;2023-02-01T16:35:38;9.70;;;2.33;;
74867;SDS011;63419;42.262;12.210;2023-02-01T16:38:08;9.38;;;2.30;;
74867;SDS011;63419;42.262;12.210;2023-02-01T16:40:42;10.77;;;3.13;;
74867;SDS011;63419;42.262;12.210;2023-02-01T16:45:44;8.80;;;2.33;;
74867;SDS011;63419;42.262;12.210;2023-02-01T16:48:17;7.60;;;2.33;;
74867;SDS011;63419;42.262;12.210;2023-02-01T16:50:53;7.60;;;1.90;;
74867;SDS011;63419;42.262;12.210;2023-02-01T16:53:24;7.57;;;1.83;;
74867;SDS011;63419;42.262;12.210;2023-02-01T16:55:54;9.10;;;2.80;;
74867;SDS011;63419;42.262;12.210;2023-02-01T16:58:23;10.57;;;2.97;;
74867;SDS011;63419;42.262;12.210;2023-02-01T17:00:52;8.35;;;3.50;;
74867;SDS011;63419;42.262;12.210;2023-02-01T17:03:20;5.63;;;1.77;;
74867;SDS011;63419;42.262;12.210;2023-02-01T17:05:49;10.43;;;2.63;;
74867;SDS011;63419;42.262;12.210;2023-02-01T17:08:35;10.70;;;2.70;;
74867;SDS011;63419;42.262;12.210;2023-02-01T17:11:06;6.68;;;2.40;;
74867;SDS011;63419;42.262;12.210;2023-02-01T17:13:35;9.82;;;2.53;;
74867;SDS011;63419;42.262;12.210;2023-02-01T17:16:04;7.43;;;1.83;;
74867;SDS011;63419;42.262;12.210;2023-02-01T17:18:47;8.95;;;2.80;;
74867;SDS011;63419;42.262;12.210;2023-02-01T17:21:22;7.60;;;2.30;;
74867;SDS011;63419;42.262;12.210;2023-02-01T17:23:52;10.07;;;3.88;;
74867;SDS011;63419;42.262;12.210;2023-02-01T17:26:19;9.70;;;3.28;;
74867;SDS011;63419;42.262;12.210;2023-02-01T17:28:47;8.32;;;3.47;;
74867;SDS011;63419;42.262;12.210;2023-02-01T17:31:15;9.98;;;3.50;;
74867;SDS011;63419;42.262;12.210;2023-02-01T17:33:43;8.80;;;2.88;;
74867;SDS011;63419;42.262;12.210;2023-02-01T17:36:13;12.52;;;3.50;;
74867;SDS011;63419;42.262;12.210;2023-02-01T17:38:43;7.90;;;2.78;;
74867;SDS011;63419;42.262;12.210;2023-02-01T17:41:19;7.70;;;2.60;;
74867;SDS011;63419;42.262;12.210;2023-02-01T17:43:52;7.47;;;2.65;;
74867;SDS011;63419;42.262;12.210;2023-02-01T17:46:20;8.50;;;2.78;;
74867;SDS011;63419;42.262;12.210;2023-02-01T17:48:53;9.88;;;2.70;;
74867;SDS011;63419;42.262;12.210;2023-02-01T17:51:22;8.77;;;3.10;;
74867;SDS011;63419;42.262;12.210;2023-02-01T17:53:53;9.27;;;3.20;;
74867;SDS011;63419;42.262;12.210;2023-02-01T17:56:22;14.38;;;4.43;;
74867;SDS011;63419;42.262;12.210;2023-02-01T17:58:50;16.67;;;5.32;;
74867;SDS011;63419;42.262;12.210;2023-02-01T18:01:19;23.52;;;10.20;;
74867;SDS011;63419;42.262;12.210;2023-02-01T18:03:52;21.45;;;9.65;;
74867;SDS011;63419;42.262;12.210;2023-02-01T18:06:24;22.60;;;8.90;;
74867;SDS011;63419;42.262;12.210;2023-02-01T18:08:52;21.20;;;8.30;;
74867;SDS011;63419;42.262;12.210;2023-02-01T18:11:20;23.02;;;8.52;;
74867;SDS011;63419;42.262;12.210;2023-02-01T18:13:51;26.60;;;10.15;;
74867;SDS011;63419;42.262;12.210;2023-02-01T18:18:48;24.95;;;6.47;;